createdAt,value
2023-12-21T00:00:14.358Z,4.46
2023-12-21T00:02:48.295Z,4.48
2023-12-21T00:05:15.524Z,4.52
2023-12-21T00:07:43.299Z,4.61
2023-12-21T00:10:11.194Z,4.63
2023-12-21T00:12:38.414Z,4.63
2023-12-21T00:15:06.239Z,4.61
2023-12-21T00:17:34.421Z,4.61
2023-12-21T00:20:01.763Z,4.67
2023-12-21T00:22:29.811Z,4.71
2023-12-21T00:24:57.211Z,4.69
2023-12-21T00:27:24.915Z,4.77
2023-12-21T00:29:52.312Z,4.79
2023-12-21T00:32:19.662Z,4.75
2023-12-21T00:35:02.838Z,4.75
2023-12-21T00:37:31.612Z,4.74
2023-12-21T00:39:59.418Z,4.79
2023-12-21T00:42:27.188Z,4.78
2023-12-21T00:44:55.186Z,4.81
2023-12-21T00:47:24.298Z,4.91
2023-12-21T00:49:52.108Z,4.94
2023-12-21T00:52:20.163Z,4.98
2023-12-21T00:54:47.856Z,4.99
2023-12-21T00:57:15.541Z,5.01
2023-12-21T00:59:43.498Z,4.94
2023-12-21T01:02:11.210Z,4.88
2023-12-21T01:04:39.374Z,4.79
2023-12-21T01:07:07.359Z,4.82
2023-12-21T01:09:34.534Z,4.87
2023-12-21T01:12:02.183Z,4.88
2023-12-21T01:14:30.791Z,4.83
2023-12-21T01:16:58.178Z,4.88
2023-12-21T01:19:25.907Z,4.94
2023-12-21T01:21:53.438Z,5.02
2023-12-21T01:24:21.334Z,5.13
2023-12-21T01:26:49.026Z,5.12
2023-12-21T01:29:17.146Z,5.12
2023-12-21T01:31:44.389Z,5.13
2023-12-21T01:34:11.708Z,5.14
2023-12-21T01:36:39.716Z,5.13
2023-12-21T01:39:07.920Z,5.15
2023-12-21T01:41:35.830Z,5.10
2023-12-21T01:44:03.767Z,4.99
2023-12-21T01:46:31.561Z,4.93
2023-12-21T01:48:59.379Z,4.83
2023-12-21T01:51:26.914Z,4.74
2023-12-21T01:53:54.043Z,4.74
2023-12-21T01:56:21.797Z,4.67
2023-12-21T01:58:49.903Z,4.68
2023-12-21T02:01:20.812Z,4.80
2023-12-21T02:03:48.884Z,4.84
2023-12-21T02:06:16.249Z,4.86
2023-12-21T02:08:44.002Z,4.85
2023-12-21T02:11:11.416Z,4.95
2023-12-21T02:13:39.161Z,4.97
2023-12-21T02:16:07.936Z,5.00
2023-12-21T02:18:35.972Z,5.03
2023-12-21T02:21:03.721Z,5.09
2023-12-21T02:23:31.482Z,5.02
2023-12-21T02:25:59.442Z,4.97
2023-12-21T02:28:27.190Z,4.93
2023-12-21T02:30:55.034Z,4.74
2023-12-21T02:33:28.272Z,4.51
2023-12-21T02:35:55.424Z,4.34
2023-12-21T02:38:24.846Z,4.30
2023-12-21T02:40:52.625Z,4.25
2023-12-21T02:43:19.838Z,4.20
2023-12-21T02:45:47.992Z,4.21
2023-12-21T02:48:15.752Z,4.29
2023-12-21T02:50:42.909Z,4.34
2023-12-21T02:53:10.677Z,4.33
2023-12-21T02:55:37.950Z,4.42
2023-12-21T02:58:05.169Z,4.48
2023-12-21T03:00:32.616Z,4.47
2023-12-21T03:02:59.857Z,4.46
2023-12-21T03:05:27.093Z,4.51
2023-12-21T03:07:55.212Z,4.58
2023-12-21T03:10:22.394Z,4.68
2023-12-21T03:12:49.874Z,4.63
2023-12-21T03:15:17.504Z,4.66
2023-12-21T03:17:45.504Z,4.60
2023-12-21T03:20:12.891Z,4.62
2023-12-21T03:22:41.289Z,4.63
2023-12-21T03:25:08.506Z,4.55
2023-12-21T03:27:36.002Z,4.52
2023-12-21T03:30:03.772Z,4.37
2023-12-21T03:32:31.524Z,4.50
2023-12-21T03:34:58.880Z,4.69
2023-12-21T03:37:28.575Z,4.86
2023-12-21T03:39:56.811Z,4.85
2023-12-21T03:42:24.115Z,4.85
2023-12-21T03:44:51.523Z,4.93
2023-12-21T03:47:18.818Z,4.90
2023-12-21T03:49:46.058Z,4.78
2023-12-21T03:52:13.553Z,4.60
2023-12-21T03:54:43.163Z,4.63
2023-12-21T03:57:10.340Z,4.58
2023-12-21T03:59:37.814Z,4.48
2023-12-21T04:02:05.518Z,4.36
2023-12-21T04:04:33.415Z,4.29
2023-12-21T04:07:00.708Z,4.28
2023-12-21T04:09:27.983Z,4.22
2023-12-21T04:11:55.431Z,4.13
2023-12-21T04:14:22.557Z,4.25
2023-12-21T04:16:52.228Z,4.53
2023-12-21T04:19:19.996Z,4.68
2023-12-21T04:21:47.813Z,4.75
2023-12-21T04:24:16.533Z,4.70
2023-12-21T04:26:43.927Z,4.61
2023-12-21T04:29:11.146Z,4.40
2023-12-21T04:31:43.628Z,4.26
2023-12-21T04:34:11.694Z,4.21
2023-12-21T04:36:39.085Z,4.22
2023-12-21T04:39:06.361Z,4.11
2023-12-21T04:41:34.380Z,4.12
2023-12-21T04:44:01.565Z,3.97
2023-12-21T04:46:28.757Z,4.04
2023-12-21T04:48:56.863Z,4.15
2023-12-21T04:51:24.047Z,4.19
2023-12-21T04:53:51.414Z,4.40
2023-12-21T04:56:19.047Z,4.50
2023-12-21T04:58:46.775Z,4.52
2023-12-21T05:01:14.040Z,4.47
2023-12-21T05:03:41.792Z,4.61
2023-12-21T05:06:09.281Z,4.99
2023-12-21T05:08:36.986Z,5.06
2023-12-21T05:11:04.498Z,5.02
2023-12-21T05:13:32.503Z,4.98
2023-12-21T05:15:59.882Z,5.06
2023-12-21T05:18:27.901Z,4.95
2023-12-21T05:20:55.224Z,4.66
2023-12-21T05:23:22.372Z,4.64
2023-12-21T05:25:49.870Z,4.51
2023-12-21T05:28:17.617Z,4.24
2023-12-21T05:30:44.853Z,4.23
2023-12-21T05:33:14.789Z,4.13
2023-12-21T05:35:42.011Z,4.06
2023-12-21T05:38:09.748Z,3.74
2023-12-21T05:40:37.362Z,3.48
2023-12-21T05:43:04.567Z,3.45
2023-12-21T05:45:31.841Z,3.50
2023-12-21T05:48:00.649Z,3.38
2023-12-21T05:50:27.951Z,3.41
2023-12-21T05:52:55.181Z,3.58
2023-12-21T05:55:23.245Z,3.76
2023-12-21T05:57:51.009Z,3.80
2023-12-21T06:00:18.421Z,3.73
2023-12-21T06:02:46.183Z,3.76
2023-12-21T06:05:14.119Z,3.46
2023-12-21T06:07:41.451Z,3.30
2023-12-21T06:10:09.708Z,3.31
2023-12-21T06:12:37.077Z,3.21
2023-12-21T06:15:05.819Z,3.32
2023-12-21T06:17:33.353Z,3.37
2023-12-21T06:20:01.233Z,3.34
2023-12-21T06:22:30.767Z,3.35
2023-12-21T06:24:58.799Z,3.11
2023-12-21T06:27:26.040Z,3.14
2023-12-21T06:29:53.238Z,3.17
2023-12-21T06:32:20.752Z,3.27
2023-12-21T06:34:48.434Z,3.22
2023-12-21T06:37:15.854Z,3.09
2023-12-21T06:39:43.364Z,3.04
2023-12-21T06:42:10.801Z,3.25
2023-12-21T06:44:38.528Z,3.23
2023-12-21T06:47:05.979Z,3.40
2023-12-21T06:49:33.398Z,3.48
2023-12-21T06:52:00.748Z,3.55
2023-12-21T06:54:28.781Z,3.64
2023-12-21T06:56:55.918Z,3.69
2023-12-21T06:59:23.119Z,3.60
2023-12-21T07:01:51.130Z,3.49
2023-12-21T07:04:18.336Z,3.38
2023-12-21T07:06:47.989Z,3.50
2023-12-21T07:09:16.798Z,3.59
2023-12-21T07:11:45.539Z,3.93
2023-12-21T07:14:14.210Z,3.89
2023-12-21T07:16:41.667Z,3.96
2023-12-21T07:19:09.087Z,3.97
2023-12-21T07:21:36.398Z,4.15
2023-12-21T07:24:04.000Z,4.17
2023-12-21T07:26:31.269Z,4.15
2023-12-21T07:28:58.993Z,4.15
2023-12-21T07:31:27.503Z,4.05
2023-12-21T07:33:54.765Z,3.95
2023-12-21T07:36:22.492Z,3.84
2023-12-21T07:38:49.980Z,3.93
2023-12-21T07:41:17.268Z,3.99
2023-12-21T07:43:46.011Z,4.29
2023-12-21T07:46:15.175Z,4.59
2023-12-21T07:48:45.204Z,4.89
2023-12-21T07:51:13.100Z,5.23
2023-12-21T07:53:40.503Z,5.24
2023-12-21T07:56:09.446Z,4.95
2023-12-21T07:58:47.917Z,5.06
2023-12-21T08:01:16.050Z,4.91
2023-12-21T08:03:43.700Z,5.01
2023-12-21T08:06:19.983Z,5.33
2023-12-21T08:08:56.748Z,5.54
2023-12-21T08:11:27.137Z,5.76
2023-12-21T08:13:56.625Z,5.80
2023-12-21T08:16:24.553Z,5.90
2023-12-21T08:18:51.868Z,6.29
2023-12-21T08:21:19.517Z,6.48
2023-12-21T08:23:46.668Z,6.62
2023-12-21T08:26:13.869Z,6.62
2023-12-21T08:28:43.185Z,6.46
2023-12-21T08:31:11.668Z,6.00
2023-12-21T08:33:39.748Z,5.92
2023-12-21T08:36:07.523Z,5.89
2023-12-21T08:38:35.271Z,5.64
2023-12-21T08:41:03.941Z,5.53
2023-12-21T08:43:33.728Z,5.51
2023-12-21T08:46:01.269Z,5.29
2023-12-21T08:48:29.188Z,5.16
2023-12-21T08:50:56.682Z,5.08
2023-12-21T08:53:24.691Z,5.10
2023-12-21T08:55:52.058Z,5.07
2023-12-21T08:58:20.384Z,5.00
2023-12-21T09:00:47.847Z,4.99
2023-12-21T09:03:15.146Z,4.96
2023-12-21T09:05:43.162Z,4.86
2023-12-21T09:08:10.903Z,4.98
2023-12-21T09:10:41.128Z,5.00
2023-12-21T09:13:14.108Z,5.13
2023-12-21T09:15:42.952Z,5.27
2023-12-21T09:18:12.061Z,5.22
2023-12-21T09:20:39.353Z,5.23
2023-12-21T09:23:06.566Z,5.16
2023-12-21T09:25:34.088Z,5.31
2023-12-21T09:28:03.992Z,5.26
2023-12-21T09:30:33.668Z,5.22
2023-12-21T09:33:01.784Z,5.30
2023-12-21T09:35:29.448Z,5.56
2023-12-21T09:37:57.241Z,5.52
2023-12-21T09:40:26.540Z,5.43
2023-12-21T09:43:04.547Z,5.42
2023-12-21T09:45:37.946Z,5.46
2023-12-21T09:48:06.587Z,5.71
2023-12-21T09:50:35.065Z,5.96
2023-12-21T09:53:02.774Z,6.17
2023-12-21T09:55:32.196Z,6.32
2023-12-21T09:58:00.041Z,6.61
2023-12-21T10:00:31.008Z,6.50
2023-12-21T10:02:58.754Z,6.65
2023-12-21T10:05:26.635Z,6.62
2023-12-21T10:07:53.793Z,6.63
2023-12-21T10:10:21.488Z,6.51
2023-12-21T10:12:49.138Z,6.46
2023-12-21T10:15:20.541Z,6.60
2023-12-21T10:17:49.048Z,6.74
2023-12-21T10:20:16.822Z,6.50
2023-12-21T10:22:44.492Z,6.46
2023-12-21T10:25:12.162Z,6.66
2023-12-21T10:27:41.751Z,6.49
2023-12-21T10:30:16.848Z,6.62
2023-12-21T10:32:46.035Z,6.71
2023-12-21T10:35:16.884Z,6.66
2023-12-21T10:37:44.636Z,6.60
2023-12-21T10:40:22.425Z,6.89
2023-12-21T10:42:50.887Z,6.74
2023-12-21T10:45:30.046Z,6.85
2023-12-21T10:48:06.159Z,6.91
2023-12-21T10:50:34.096Z,7.05
2023-12-21T10:53:02.238Z,7.16
2023-12-21T10:55:30.067Z,7.34
2023-12-21T10:57:57.904Z,7.35
2023-12-21T11:00:27.358Z,7.23
2023-12-21T11:03:11.132Z,7.25
2023-12-21T11:05:41.226Z,7.31
2023-12-21T11:08:09.003Z,7.30
2023-12-21T11:10:36.878Z,7.44
2023-12-21T11:13:04.917Z,7.48
2023-12-21T11:15:34.271Z,7.51
2023-12-21T11:18:04.419Z,7.52
2023-12-21T11:20:42.180Z,7.81
2023-12-21T11:23:14.822Z,7.99
2023-12-21T11:25:44.157Z,8.13
2023-12-21T11:28:12.231Z,8.19
2023-12-21T11:30:44.160Z,8.14
2023-12-21T11:33:13.150Z,7.93
2023-12-21T11:35:41.052Z,8.09
2023-12-21T11:38:08.798Z,8.51
2023-12-21T11:40:37.042Z,8.41
2023-12-21T11:43:08.016Z,8.68
2023-12-21T11:45:47.901Z,8.74
2023-12-21T11:48:18.196Z,8.80
2023-12-21T11:50:49.194Z,8.89
2023-12-21T11:53:33.109Z,8.84
2023-12-21T11:56:15.355Z,9.07
2023-12-21T11:58:44.968Z,8.96
2023-12-21T12:01:23.165Z,9.08
2023-12-21T12:03:51.412Z,9.14
2023-12-21T12:06:19.252Z,9.12
2023-12-21T12:08:49.315Z,9.12
2023-12-21T12:11:17.290Z,9.03
2023-12-21T12:13:45.042Z,8.85
2023-12-21T12:16:16.062Z,8.82
2023-12-21T12:18:44.346Z,8.74
2023-12-21T12:21:12.116Z,8.78
2023-12-21T12:23:41.438Z,9.08
2023-12-21T12:26:17.902Z,9.08
2023-12-21T12:28:45.878Z,8.98
2023-12-21T12:31:14.016Z,8.94
2023-12-21T12:33:42.572Z,8.93
2023-12-21T12:36:10.709Z,8.97
2023-12-21T12:38:38.673Z,8.96
2023-12-21T12:41:08.161Z,9.05
2023-12-21T12:43:36.357Z,9.12
2023-12-21T12:46:06.052Z,9.07
2023-12-21T12:48:33.996Z,8.89
2023-12-21T12:51:01.249Z,8.73
2023-12-21T12:53:30.939Z,9.01
2023-12-21T12:56:01.444Z,8.90
2023-12-21T12:58:44.350Z,8.99
2023-12-21T13:01:22.396Z,9.22
2023-12-21T13:03:51.982Z,9.36
2023-12-21T13:06:19.953Z,9.42
2023-12-21T13:08:47.925Z,9.21
2023-12-21T13:11:17.210Z,9.27
2023-12-21T13:13:48.439Z,9.26
2023-12-21T13:16:19.027Z,9.43
2023-12-21T13:18:46.853Z,9.62
2023-12-21T13:21:14.620Z,9.52
2023-12-21T13:23:43.403Z,9.61
2023-12-21T13:26:13.638Z,9.72
2023-12-21T13:28:44.857Z,9.64
2023-12-21T13:31:13.186Z,9.44
2023-12-21T13:33:41.132Z,9.32
2023-12-21T13:36:11.319Z,9.43
2023-12-21T13:38:41.973Z,9.52
2023-12-21T13:41:10.524Z,9.29
2023-12-21T13:43:38.552Z,9.18
2023-12-21T13:46:08.204Z,9.24
2023-12-21T13:48:36.643Z,9.11
2023-12-21T13:51:04.993Z,8.86
2023-12-21T13:53:35.456Z,8.96
2023-12-21T13:56:04.021Z,8.95
2023-12-21T13:58:35.490Z,9.02
2023-12-21T14:01:05.592Z,9.05
2023-12-21T14:03:33.758Z,9.44
2023-12-21T14:06:01.050Z,9.49
2023-12-21T14:08:28.747Z,9.41
2023-12-21T14:10:59.342Z,9.34
2023-12-21T14:13:26.706Z,9.21
2023-12-21T14:15:53.888Z,9.23
2023-12-21T14:18:21.306Z,9.22
2023-12-21T14:20:52.607Z,9.37
2023-12-21T14:23:22.974Z,9.39
2023-12-21T14:25:50.519Z,9.15
2023-12-21T14:28:17.917Z,8.95
2023-12-21T14:30:45.115Z,8.80
2023-12-21T14:33:13.454Z,8.65
2023-12-21T14:35:40.750Z,8.73
2023-12-21T14:38:08.087Z,8.83
2023-12-21T14:40:36.301Z,8.84
2023-12-21T14:43:04.295Z,8.83
2023-12-21T14:45:31.572Z,8.85
2023-12-21T14:47:59.045Z,8.62
2023-12-21T14:50:26.306Z,8.42
2023-12-21T14:52:54.381Z,8.33
2023-12-21T14:55:22.086Z,8.23
2023-12-21T14:57:50.673Z,8.40
2023-12-21T15:00:18.270Z,8.36
2023-12-21T15:02:45.878Z,8.32
2023-12-21T15:05:14.052Z,8.20
2023-12-21T15:07:41.494Z,8.22
2023-12-21T15:10:10.011Z,8.20
2023-12-21T15:12:38.683Z,8.22
2023-12-21T15:15:05.992Z,8.22
2023-12-21T15:17:33.850Z,8.13
2023-12-21T15:20:01.078Z,8.13
2023-12-21T15:22:29.008Z,8.07
2023-12-21T15:24:56.494Z,8.09
2023-12-21T15:27:26.867Z,8.36
2023-12-21T15:29:54.080Z,8.46
2023-12-21T15:32:25.394Z,8.42
2023-12-21T15:34:52.930Z,8.13
2023-12-21T15:37:20.243Z,7.94
2023-12-21T15:39:47.759Z,7.56
2023-12-21T15:42:14.937Z,7.11
2023-12-21T15:44:42.102Z,7.04
2023-12-21T15:47:09.639Z,7.19
2023-12-21T15:49:36.968Z,7.18
2023-12-21T15:52:08.677Z,7.12
2023-12-21T15:54:36.352Z,7.16
2023-12-21T15:57:03.623Z,7.13
2023-12-21T15:59:35.653Z,7.18
2023-12-21T16:02:03.849Z,7.41
2023-12-21T16:04:34.831Z,7.39
2023-12-21T16:07:03.892Z,7.31
2023-12-21T16:09:31.875Z,7.47
2023-12-21T16:11:59.263Z,7.40
2023-12-21T16:14:26.494Z,7.10
2023-12-21T16:16:54.136Z,7.22
2023-12-21T16:19:21.623Z,6.97
2023-12-21T16:21:49.732Z,6.89
2023-12-21T16:24:17.417Z,6.85
2023-12-21T16:26:44.712Z,6.74
2023-12-21T16:29:12.294Z,6.64
2023-12-21T16:31:40.036Z,6.60
2023-12-21T16:34:07.548Z,6.57
2023-12-21T16:36:34.877Z,6.47
2023-12-21T16:39:04.976Z,6.50
2023-12-21T16:41:32.135Z,6.55
2023-12-21T16:44:00.435Z,6.64
2023-12-21T16:46:31.079Z,6.71
2023-12-21T16:48:58.296Z,6.75
2023-12-21T16:51:27.646Z,6.77
2023-12-21T16:53:55.072Z,6.78
2023-12-21T16:56:22.953Z,6.84
2023-12-21T16:58:50.184Z,6.89
2023-12-21T17:01:19.245Z,7.12
2023-12-21T17:03:48.674Z,7.24
2023-12-21T17:06:16.829Z,7.33
2023-12-21T17:08:44.288Z,7.21
2023-12-21T17:11:11.513Z,6.98
2023-12-21T17:13:38.829Z,6.97
2023-12-21T17:16:08.421Z,6.80
2023-12-21T17:18:35.894Z,6.74
2023-12-21T17:21:03.196Z,6.87
2023-12-21T17:23:30.641Z,6.97
2023-12-21T17:25:59.406Z,7.12
2023-12-21T17:28:26.929Z,7.30
2023-12-21T17:30:54.584Z,7.19
2023-12-21T17:33:22.171Z,7.24
2023-12-21T17:35:54.105Z,7.34
2023-12-21T17:38:21.617Z,7.35
2023-12-21T17:40:48.879Z,7.28
2023-12-21T17:43:16.153Z,7.32
2023-12-21T17:45:44.282Z,7.35
2023-12-21T17:48:25.263Z,7.28
2023-12-21T17:50:53.115Z,7.33
2023-12-21T17:53:20.336Z,7.42
2023-12-21T17:55:47.515Z,7.36
2023-12-21T17:58:18.519Z,7.17
2023-12-21T18:00:46.490Z,7.05
2023-12-21T18:03:16.647Z,7.00
2023-12-21T18:05:45.452Z,7.25
2023-12-21T18:08:15.356Z,7.01
2023-12-21T18:10:42.852Z,6.92
2023-12-21T18:13:12.428Z,6.85
2023-12-21T18:15:40.265Z,6.89
2023-12-21T18:18:08.347Z,6.92
2023-12-21T18:20:35.552Z,6.81
2023-12-21T18:23:02.690Z,6.91
2023-12-21T18:25:30.196Z,6.87
2023-12-21T18:27:58.563Z,6.77
2023-12-21T18:30:25.735Z,6.65
2023-12-21T18:32:59.633Z,6.59
2023-12-21T18:35:27.360Z,6.45
2023-12-21T18:38:00.829Z,6.46
2023-12-21T18:40:29.142Z,6.34
2023-12-21T18:42:57.174Z,6.26
2023-12-21T18:45:24.975Z,6.30
2023-12-21T18:47:54.822Z,6.46
2023-12-21T18:50:22.909Z,6.47
2023-12-21T18:52:54.503Z,6.50
2023-12-21T18:55:22.645Z,6.64
2023-12-21T18:57:50.453Z,6.57
2023-12-21T19:00:20.064Z,6.59
2023-12-21T19:02:49.222Z,6.58
2023-12-21T19:05:17.040Z,6.64
2023-12-21T19:07:45.707Z,6.58
2023-12-21T19:10:13.844Z,6.48
2023-12-21T19:12:42.937Z,6.54
2023-12-21T19:15:10.636Z,6.56
2023-12-21T19:17:39.385Z,6.37
2023-12-21T19:20:07.536Z,6.21
2023-12-21T19:22:35.329Z,6.15
2023-12-21T19:25:03.728Z,6.21
2023-12-21T19:27:31.534Z,6.26
2023-12-21T19:29:59.233Z,6.32
2023-12-21T19:32:27.258Z,6.30
2023-12-21T19:34:55.247Z,6.31
2023-12-21T19:37:23.105Z,6.19
2023-12-21T19:39:51.194Z,6.21
2023-12-21T19:42:18.905Z,6.11
2023-12-21T19:44:47.584Z,6.19
2023-12-21T19:47:15.553Z,6.06
2023-12-21T19:49:43.281Z,6.02
2023-12-21T19:52:11.164Z,6.10
2023-12-21T19:54:39.593Z,6.15
2023-12-21T19:57:09.506Z,6.17
2023-12-21T19:59:38.564Z,6.19
2023-12-21T20:02:07.564Z,6.36
2023-12-21T20:04:37.867Z,6.50
2023-12-21T20:07:05.584Z,6.58
2023-12-21T20:09:34.358Z,6.44
2023-12-21T20:12:02.482Z,6.29
2023-12-21T20:14:30.171Z,6.30
2023-12-21T20:16:57.977Z,6.30
2023-12-21T20:19:27.915Z,6.38
2023-12-21T20:21:56.054Z,6.37
2023-12-21T20:24:23.970Z,6.43
2023-12-21T20:26:51.969Z,6.43
2023-12-21T20:29:19.714Z,6.37
2023-12-21T20:31:47.453Z,6.37
2023-12-21T20:34:15.518Z,6.41
2023-12-21T20:36:45.213Z,6.44
2023-12-21T20:39:15.248Z,6.43
2023-12-21T20:41:43.187Z,6.46
2023-12-21T20:44:10.838Z,6.46
2023-12-21T20:46:38.598Z,6.48
2023-12-21T20:49:08.133Z,6.53
2023-12-21T20:51:35.899Z,6.58
2023-12-21T20:54:04.160Z,6.62
2023-12-21T20:56:32.231Z,6.64
2023-12-21T20:58:59.978Z,6.72
2023-12-21T21:01:30.707Z,6.69
2023-12-21T21:03:58.459Z,6.62
2023-12-21T21:06:26.190Z,6.54
2023-12-21T21:08:53.902Z,6.64
2023-12-21T21:11:22.180Z,6.73
2023-12-21T21:13:53.241Z,6.65
2023-12-21T21:16:25.188Z,6.60
2023-12-21T21:18:53.119Z,6.67
2023-12-21T21:21:21.170Z,6.57
2023-12-21T21:23:50.079Z,6.62
2023-12-21T21:26:17.748Z,6.53
2023-12-21T21:28:45.310Z,6.56
2023-12-21T21:31:17.022Z,6.78
2023-12-21T21:33:45.560Z,6.95
2023-12-21T21:36:14.105Z,6.86
2023-12-21T21:38:42.931Z,6.88
2023-12-21T21:41:17.617Z,6.40
2023-12-21T21:43:45.673Z,6.39
2023-12-21T21:46:14.653Z,6.39
2023-12-21T21:48:42.848Z,6.46
2023-12-21T21:51:13.913Z,6.53
2023-12-21T21:53:44.134Z,6.60
2023-12-21T21:56:12.614Z,6.60
2023-12-21T21:58:40.599Z,6.58
2023-12-21T22:01:11.025Z,6.51
2023-12-21T22:03:39.305Z,6.44
2023-12-21T22:06:07.027Z,6.42
2023-12-21T22:08:34.727Z,6.45
2023-12-21T22:11:03.328Z,6.51
2023-12-21T22:13:32.201Z,6.45
2023-12-21T22:15:59.944Z,6.50
2023-12-21T22:18:28.120Z,6.64
2023-12-21T22:20:55.917Z,6.77
2023-12-21T22:23:23.647Z,6.78
2023-12-21T22:25:51.724Z,6.67
2023-12-21T22:28:19.149Z,6.64
2023-12-21T22:30:46.916Z,6.75
2023-12-21T22:33:16.161Z,6.79
2023-12-21T22:35:43.978Z,6.66
2023-12-21T22:38:11.850Z,6.64
2023-12-21T22:40:39.879Z,6.62
2023-12-21T22:43:07.106Z,6.65
2023-12-21T22:45:34.322Z,6.72
2023-12-21T22:48:02.415Z,6.67
2023-12-21T22:50:30.382Z,6.62
2023-12-21T22:52:58.453Z,6.79
2023-12-21T22:55:26.887Z,6.77
2023-12-21T22:57:54.975Z,6.76
2023-12-21T23:00:23.310Z,6.70
2023-12-21T23:02:50.928Z,6.75
2023-12-21T23:05:18.762Z,6.83
2023-12-21T23:07:47.140Z,7.02
2023-12-21T23:10:15.532Z,7.31
2023-12-21T23:12:47.189Z,7.51
2023-12-21T23:15:16.162Z,7.67
2023-12-21T23:17:44.192Z,7.56
2023-12-21T23:20:12.028Z,7.66
2023-12-21T23:22:40.090Z,7.74
2023-12-21T23:25:07.941Z,7.52
2023-12-21T23:27:35.719Z,7.21
2023-12-21T23:30:03.769Z,7.29
2023-12-21T23:32:34.017Z,7.21
2023-12-21T23:35:12.792Z,7.22
2023-12-21T23:37:45.999Z,7.23
2023-12-21T23:40:14.149Z,7.23
2023-12-21T23:42:43.178Z,7.03
2023-12-21T23:45:11.160Z,7.02
2023-12-21T23:47:39.450Z,6.95
2023-12-21T23:50:07.455Z,6.91
2023-12-21T23:52:35.563Z,6.89
2023-12-21T23:55:03.330Z,6.81
2023-12-21T23:57:31.104Z,6.80
2023-12-21T23:59:59.843Z,6.80
